sensor_id;sensor_type;location;lat;lon;timestamp;P1;durP1;ratioP1;P2;durP2;ratioP2
80679;SDS011;70043;51.982;-8.514;2023-08-17T00:00:19;2.25;;;0.30;;
80679;SDS011;70043;51.982;-8.514;2023-08-17T00:05:36;0.63;;;0.22;;
80679;SDS011;70043;51.982;-8.514;2023-08-17T00:08:03;0.70;;;0.20;;
80679;SDS011;70043;51.982;-8.514;2023-08-17T00:10:33;0.70;;;0.22;;
80679;SDS011;70043;51.982;-8.514;2023-08-17T00:13:01;0.75;;;0.40;;
80679;SDS011;70043;51.982;-8.514;2023-08-17T00:15:32;1.30;;;0.28;;
80679;SDS011;70043;51.982;-8.514;2023-08-17T00:18:09;1.17;;;0.35;;
80679;SDS011;70043;51.982;-8.514;2023-08-17T00:20:36;0.75;;;0.20;;
80679;SDS011;70043;51.982;-8.514;2023-08-17T00:23:04;0.65;;;0.20;;
80679;SDS011;70043;51.982;-8.514;2023-08-17T00:25:32;0.47;;;0.30;;
80679;SDS011;70043;51.982;-8.514;2023-08-17T00:30:47;0.77;;;0.32;;
80679;SDS011;70043;51.982;-8.514;2023-08-17T00:35:47;0.40;;;0.20;;
80679;SDS011;70043;51.982;-8.514;2023-08-17T00:44:10;0.50;;;0.30;;
80679;SDS011;70043;51.982;-8.514;2023-08-17T00:46:43;0.47;;;0.35;;
80679;SDS011;70043;51.982;-8.514;2023-08-17T00:49:16;1.58;;;0.43;;
80679;SDS011;70043;51.982;-8.514;2023-08-17T00:51:51;0.40;;;0.40;;
80679;SDS011;70043;51.982;-8.514;2023-08-17T00:54:30;1.27;;;0.40;;
80679;SDS011;70043;51.982;-8.514;2023-08-17T00:59:35;1.58;;;0.38;;
80679;SDS011;70043;51.982;-8.514;2023-08-17T01:02:04;0.82;;;0.30;;
80679;SDS011;70043;51.982;-8.514;2023-08-17T01:04:32;0.30;;;0.20;;
80679;SDS011;70043;51.982;-8.514;2023-08-17T01:07:15;0.20;;;0.10;;
80679;SDS011;70043;51.982;-8.514;2023-08-17T01:09:43;2.33;;;0.25;;
80679;SDS011;70043;51.982;-8.514;2023-08-17T01:12:13;0.28;;;0.13;;
80679;SDS011;70043;51.982;-8.514;2023-08-17T01:14:50;1.02;;;0.43;;
80679;SDS011;70043;51.982;-8.514;2023-08-17T01:17:31;2.97;;;0.40;;
80679;SDS011;70043;51.982;-8.514;2023-08-17T01:20:13;0.30;;;0.17;;
80679;SDS011;70043;51.982;-8.514;2023-08-17T01:22:41;0.52;;;0.22;;
80679;SDS011;70043;51.982;-8.514;2023-08-17T01:25:12;0.95;;;0.30;;
80679;SDS011;70043;51.982;-8.514;2023-08-17T01:30:53;0.32;;;0.13;;
80679;SDS011;70043;51.982;-8.514;2023-08-17T01:33:24;0.35;;;0.10;;
80679;SDS011;70043;51.982;-8.514;2023-08-17T01:35:55;0.50;;;0.17;;
80679;SDS011;70043;51.982;-8.514;2023-08-17T01:38:27;0.82;;;0.30;;
80679;SDS011;70043;51.982;-8.514;2023-08-17T01:41:01;0.40;;;0.25;;
80679;SDS011;70043;51.982;-8.514;2023-08-17T01:43:30;0.93;;;0.20;;
80679;SDS011;70043;51.982;-8.514;2023-08-17T01:45:58;0.30;;;0.20;;
80679;SDS011;70043;51.982;-8.514;2023-08-17T01:48:26;0.30;;;0.15;;
80679;SDS011;70043;51.982;-8.514;2023-08-17T01:50:52;0.47;;;0.32;;
80679;SDS011;70043;51.982;-8.514;2023-08-17T01:53:19;0.40;;;0.20;;
80679;SDS011;70043;51.982;-8.514;2023-08-17T01:55:46;0.40;;;0.30;;
80679;SDS011;70043;51.982;-8.514;2023-08-17T01:58:18;0.10;;;0.10;;
80679;SDS011;70043;51.982;-8.514;2023-08-17T02:00:45;0.90;;;0.40;;
80679;SDS011;70043;51.982;-8.514;2023-08-17T02:03:12;0.98;;;0.52;;
80679;SDS011;70043;51.982;-8.514;2023-08-17T02:05:39;0.50;;;0.20;;
80679;SDS011;70043;51.982;-8.514;2023-08-17T02:08:11;2.85;;;0.38;;
80679;SDS011;70043;51.982;-8.514;2023-08-17T02:10:46;0.68;;;0.40;;
80679;SDS011;70043;51.982;-8.514;2023-08-17T02:13:24;1.02;;;0.50;;
80679;SDS011;70043;51.982;-8.514;2023-08-17T02:15:55;0.90;;;0.30;;
80679;SDS011;70043;51.982;-8.514;2023-08-17T02:18:25;1.48;;;0.22;;
80679;SDS011;70043;51.982;-8.514;2023-08-17T02:20:55;1.00;;;0.28;;
80679;SDS011;70043;51.982;-8.514;2023-08-17T02:23:23;1.02;;;0.40;;
80679;SDS011;70043;51.982;-8.514;2023-08-17T02:25:51;0.85;;;0.25;;
80679;SDS011;70043;51.982;-8.514;2023-08-17T02:28:23;0.82;;;0.15;;
80679;SDS011;70043;51.982;-8.514;2023-08-17T02:36:03;0.57;;;0.30;;
80679;SDS011;70043;51.982;-8.514;2023-08-17T02:38:30;0.38;;;0.20;;
80679;SDS011;70043;51.982;-8.514;2023-08-17T02:40:58;1.20;;;0.40;;
80679;SDS011;70043;51.982;-8.514;2023-08-17T02:43:31;0.45;;;0.30;;
80679;SDS011;70043;51.982;-8.514;2023-08-17T02:45:58;2.95;;;0.40;;
80679;SDS011;70043;51.982;-8.514;2023-08-17T02:48:25;0.68;;;0.30;;
80679;SDS011;70043;51.982;-8.514;2023-08-17T02:51:00;0.95;;;0.45;;
80679;SDS011;70043;51.982;-8.514;2023-08-17T02:53:26;2.25;;;0.40;;
80679;SDS011;70043;51.982;-8.514;2023-08-17T02:55:58;0.40;;;0.30;;
80679;SDS011;70043;51.982;-8.514;2023-08-17T02:58:25;0.77;;;0.32;;
80679;SDS011;70043;51.982;-8.514;2023-08-17T03:00:58;0.68;;;0.35;;
80679;SDS011;70043;51.982;-8.514;2023-08-17T03:03:25;1.95;;;0.30;;
80679;SDS011;70043;51.982;-8.514;2023-08-17T03:05:54;0.88;;;0.40;;
80679;SDS011;70043;51.982;-8.514;2023-08-17T03:08:30;0.40;;;0.30;;
80679;SDS011;70043;51.982;-8.514;2023-08-17T03:10:59;1.48;;;0.40;;
80679;SDS011;70043;51.982;-8.514;2023-08-17T03:13:32;1.05;;;0.40;;
80679;SDS011;70043;51.982;-8.514;2023-08-17T03:16:08;1.90;;;0.40;;
80679;SDS011;70043;51.982;-8.514;2023-08-17T03:18:43;0.60;;;0.50;;
80679;SDS011;70043;51.982;-8.514;2023-08-17T03:21:12;2.00;;;0.20;;
80679;SDS011;70043;51.982;-8.514;2023-08-17T03:23:45;0.85;;;0.40;;
80679;SDS011;70043;51.982;-8.514;2023-08-17T03:26:12;1.13;;;0.60;;
80679;SDS011;70043;51.982;-8.514;2023-08-17T03:28:39;0.32;;;0.30;;
80679;SDS011;70043;51.982;-8.514;2023-08-17T03:31:08;0.90;;;0.43;;
80679;SDS011;70043;51.982;-8.514;2023-08-17T03:33:35;0.60;;;0.30;;
80679;SDS011;70043;51.982;-8.514;2023-08-17T03:36:02;0.80;;;0.28;;
80679;SDS011;70043;51.982;-8.514;2023-08-17T03:38:31;1.83;;;0.32;;
80679;SDS011;70043;51.982;-8.514;2023-08-17T03:41:02;0.75;;;0.30;;
80679;SDS011;70043;51.982;-8.514;2023-08-17T03:43:31;0.98;;;0.40;;
80679;SDS011;70043;51.982;-8.514;2023-08-17T03:46:03;0.52;;;0.40;;
80679;SDS011;70043;51.982;-8.514;2023-08-17T03:51:16;1.23;;;0.43;;
80679;SDS011;70043;51.982;-8.514;2023-08-17T03:53:53;4.68;;;0.50;;
80679;SDS011;70043;51.982;-8.514;2023-08-17T03:59:31;1.23;;;0.40;;
80679;SDS011;70043;51.982;-8.514;2023-08-17T04:02:05;1.02;;;0.40;;
80679;SDS011;70043;51.982;-8.514;2023-08-17T04:07:37;2.47;;;0.43;;
80679;SDS011;70043;51.982;-8.514;2023-08-17T04:17:49;0.50;;;0.30;;
80679;SDS011;70043;51.982;-8.514;2023-08-17T04:20:16;1.23;;;0.30;;
80679;SDS011;70043;51.982;-8.514;2023-08-17T04:22:48;0.95;;;0.40;;
80679;SDS011;70043;51.982;-8.514;2023-08-17T04:46:37;0.85;;;0.30;;
80679;SDS011;70043;51.982;-8.514;2023-08-17T05:21:25;0.88;;;0.50;;
80679;SDS011;70043;51.982;-8.514;2023-08-17T05:29:09;1.23;;;0.57;;
80679;SDS011;70043;51.982;-8.514;2023-08-17T05:31:39;0.95;;;0.60;;
80679;SDS011;70043;51.982;-8.514;2023-08-17T05:34:06;1.00;;;0.70;;
80679;SDS011;70043;51.982;-8.514;2023-08-17T05:36:48;1.02;;;0.57;;
80679;SDS011;70043;51.982;-8.514;2023-08-17T05:39:28;0.98;;;0.60;;
80679;SDS011;70043;51.982;-8.514;2023-08-17T05:42:01;1.20;;;0.70;;
80679;SDS011;70043;51.982;-8.514;2023-08-17T05:44:28;1.20;;;0.70;;
80679;SDS011;70043;51.982;-8.514;2023-08-17T05:49:44;1.40;;;0.90;;
80679;SDS011;70043;51.982;-8.514;2023-08-17T05:52:16;1.17;;;0.85;;
80679;SDS011;70043;51.982;-8.514;2023-08-17T05:54:44;0.95;;;0.60;;
80679;SDS011;70043;51.982;-8.514;2023-08-17T05:57:13;1.10;;;0.88;;
80679;SDS011;70043;51.982;-8.514;2023-08-17T05:59:41;1.90;;;0.85;;
80679;SDS011;70043;51.982;-8.514;2023-08-17T06:02:09;1.58;;;1.00;;
80679;SDS011;70043;51.982;-8.514;2023-08-17T06:04:50;1.42;;;1.00;;
80679;SDS011;70043;51.982;-8.514;2023-08-17T06:16:07;2.67;;;1.30;;
80679;SDS011;70043;51.982;-8.514;2023-08-17T06:18:40;4.50;;;1.48;;
80679;SDS011;70043;51.982;-8.514;2023-08-17T06:21:09;2.53;;;1.70;;
80679;SDS011;70043;51.982;-8.514;2023-08-17T06:23:42;1.98;;;1.33;;
80679;SDS011;70043;51.982;-8.514;2023-08-17T06:26:12;3.08;;;1.30;;
80679;SDS011;70043;51.982;-8.514;2023-08-17T06:28:40;2.30;;;1.60;;
80679;SDS011;70043;51.982;-8.514;2023-08-17T06:33:45;3.72;;;1.60;;
80679;SDS011;70043;51.982;-8.514;2023-08-17T06:36:12;1.88;;;0.93;;
80679;SDS011;70043;51.982;-8.514;2023-08-17T06:38:42;2.15;;;1.30;;
80679;SDS011;70043;51.982;-8.514;2023-08-17T06:41:22;4.18;;;1.55;;
80679;SDS011;70043;51.982;-8.514;2023-08-17T06:43:49;2.13;;;1.52;;
80679;SDS011;70043;51.982;-8.514;2023-08-17T06:46:24;3.33;;;1.90;;
80679;SDS011;70043;51.982;-8.514;2023-08-17T06:48:55;2.85;;;1.65;;
80679;SDS011;70043;51.982;-8.514;2023-08-17T06:56:59;3.15;;;1.83;;
80679;SDS011;70043;51.982;-8.514;2023-08-17T06:59:26;3.55;;;1.40;;
80679;SDS011;70043;51.982;-8.514;2023-08-17T07:01:53;3.35;;;1.90;;
80679;SDS011;70043;51.982;-8.514;2023-08-17T07:04:28;2.92;;;1.63;;
80679;SDS011;70043;51.982;-8.514;2023-08-17T07:06:55;2.88;;;1.30;;
80679;SDS011;70043;51.982;-8.514;2023-08-17T07:09:22;2.50;;;1.23;;
80679;SDS011;70043;51.982;-8.514;2023-08-17T07:11:51;2.60;;;1.60;;
80679;SDS011;70043;51.982;-8.514;2023-08-17T07:14:22;2.35;;;1.45;;
80679;SDS011;70043;51.982;-8.514;2023-08-17T07:16:49;3.72;;;1.60;;
80679;SDS011;70043;51.982;-8.514;2023-08-17T07:19:16;3.58;;;1.50;;
80679;SDS011;70043;51.982;-8.514;2023-08-17T07:21:45;2.97;;;1.80;;
80679;SDS011;70043;51.982;-8.514;2023-08-17T07:24:12;6.82;;;1.90;;
80679;SDS011;70043;51.982;-8.514;2023-08-17T07:26:40;2.13;;;1.40;;
80679;SDS011;70043;51.982;-8.514;2023-08-17T07:29:06;2.20;;;1.27;;
80679;SDS011;70043;51.982;-8.514;2023-08-17T07:31:33;2.45;;;1.70;;
80679;SDS011;70043;51.982;-8.514;2023-08-17T07:34:02;3.90;;;1.48;;
80679;SDS011;70043;51.982;-8.514;2023-08-17T07:36:32;3.08;;;1.35;;
80679;SDS011;70043;51.982;-8.514;2023-08-17T07:39:01;5.70;;;1.55;;
80679;SDS011;70043;51.982;-8.514;2023-08-17T07:41:27;2.33;;;1.58;;
80679;SDS011;70043;51.982;-8.514;2023-08-17T07:43:54;4.38;;;1.77;;
80679;SDS011;70043;51.982;-8.514;2023-08-17T07:46:24;3.95;;;1.67;;
80679;SDS011;70043;51.982;-8.514;2023-08-17T07:48:51;3.20;;;1.90;;
80679;SDS011;70043;51.982;-8.514;2023-08-17T07:51:18;3.72;;;2.00;;
80679;SDS011;70043;51.982;-8.514;2023-08-17T07:53:45;4.28;;;1.67;;
80679;SDS011;70043;51.982;-8.514;2023-08-17T07:56:15;4.18;;;2.40;;
80679;SDS011;70043;51.982;-8.514;2023-08-17T07:58:42;3.70;;;2.00;;
80679;SDS011;70043;51.982;-8.514;2023-08-17T08:01:09;5.70;;;1.83;;
80679;SDS011;70043;51.982;-8.514;2023-08-17T08:03:36;2.88;;;1.83;;
80679;SDS011;70043;51.982;-8.514;2023-08-17T08:06:03;3.33;;;1.90;;
80679;SDS011;70043;51.982;-8.514;2023-08-17T08:08:31;4.20;;;2.10;;
80679;SDS011;70043;51.982;-8.514;2023-08-17T08:10:58;3.70;;;1.75;;
80679;SDS011;70043;51.982;-8.514;2023-08-17T08:13:26;3.88;;;2.25;;
80679;SDS011;70043;51.982;-8.514;2023-08-17T08:15:53;4.13;;;2.10;;
80679;SDS011;70043;51.982;-8.514;2023-08-17T08:18:20;2.17;;;1.85;;
80679;SDS011;70043;51.982;-8.514;2023-08-17T08:20:47;3.30;;;2.03;;
80679;SDS011;70043;51.982;-8.514;2023-08-17T08:23:15;4.35;;;1.88;;
80679;SDS011;70043;51.982;-8.514;2023-08-17T08:25:41;4.68;;;2.13;;
80679;SDS011;70043;51.982;-8.514;2023-08-17T08:28:08;5.18;;;2.13;;
80679;SDS011;70043;51.982;-8.514;2023-08-17T08:30:38;3.70;;;2.42;;
80679;SDS011;70043;51.982;-8.514;2023-08-17T08:33:08;3.22;;;2.30;;
80679;SDS011;70043;51.982;-8.514;2023-08-17T08:35:36;3.13;;;2.38;;
80679;SDS011;70043;51.982;-8.514;2023-08-17T08:38:03;3.22;;;2.15;;
80679;SDS011;70043;51.982;-8.514;2023-08-17T08:40:30;3.50;;;2.20;;
80679;SDS011;70043;51.982;-8.514;2023-08-17T08:42:57;4.00;;;2.60;;
80679;SDS011;70043;51.982;-8.514;2023-08-17T08:45:25;4.15;;;2.80;;
80679;SDS011;70043;51.982;-8.514;2023-08-17T08:47:55;5.35;;;2.05;;
80679;SDS011;70043;51.982;-8.514;2023-08-17T08:50:23;3.58;;;2.50;;
80679;SDS011;70043;51.982;-8.514;2023-08-17T08:52:53;2.90;;;2.17;;
80679;SDS011;70043;51.982;-8.514;2023-08-17T08:55:26;4.38;;;2.28;;
80679;SDS011;70043;51.982;-8.514;2023-08-17T08:57:53;3.28;;;2.40;;
80679;SDS011;70043;51.982;-8.514;2023-08-17T09:00:20;4.00;;;2.47;;
80679;SDS011;70043;51.982;-8.514;2023-08-17T09:02:48;2.67;;;2.13;;
80679;SDS011;70043;51.982;-8.514;2023-08-17T09:05:20;3.53;;;2.20;;
80679;SDS011;70043;51.982;-8.514;2023-08-17T09:07:47;4.13;;;2.40;;
80679;SDS011;70043;51.982;-8.514;2023-08-17T09:10:14;3.17;;;2.13;;
80679;SDS011;70043;51.982;-8.514;2023-08-17T09:12:46;4.13;;;2.25;;
80679;SDS011;70043;51.982;-8.514;2023-08-17T09:15:14;3.03;;;2.05;;
80679;SDS011;70043;51.982;-8.514;2023-08-17T09:17:41;3.25;;;2.13;;
80679;SDS011;70043;51.982;-8.514;2023-08-17T09:20:11;3.30;;;2.00;;
80679;SDS011;70043;51.982;-8.514;2023-08-17T09:22:41;4.05;;;2.42;;
80679;SDS011;70043;51.982;-8.514;2023-08-17T09:25:08;7.10;;;2.33;;
80679;SDS011;70043;51.982;-8.514;2023-08-17T09:27:35;3.42;;;1.70;;
80679;SDS011;70043;51.982;-8.514;2023-08-17T09:30:09;3.13;;;1.42;;
80679;SDS011;70043;51.982;-8.514;2023-08-17T09:32:37;3.53;;;1.85;;
80679;SDS011;70043;51.982;-8.514;2023-08-17T09:35:05;3.95;;;1.80;;
80679;SDS011;70043;51.982;-8.514;2023-08-17T09:37:32;3.50;;;1.38;;
80679;SDS011;70043;51.982;-8.514;2023-08-17T09:40:00;3.50;;;1.63;;
80679;SDS011;70043;51.982;-8.514;2023-08-17T09:42:28;1.83;;;1.25;;
80679;SDS011;70043;51.982;-8.514;2023-08-17T09:44:58;5.63;;;1.20;;
80679;SDS011;70043;51.982;-8.514;2023-08-17T09:47:29;1.73;;;1.15;;
80679;SDS011;70043;51.982;-8.514;2023-08-17T09:49:58;2.20;;;1.17;;
80679;SDS011;70043;51.982;-8.514;2023-08-17T09:52:27;4.10;;;1.40;;
80679;SDS011;70043;51.982;-8.514;2023-08-17T09:54:54;1.83;;;1.27;;
80679;SDS011;70043;51.982;-8.514;2023-08-17T09:57:23;3.58;;;1.20;;
80679;SDS011;70043;51.982;-8.514;2023-08-17T09:59:51;1.85;;;1.08;;
80679;SDS011;70043;51.982;-8.514;2023-08-17T10:02:22;2.35;;;1.30;;
80679;SDS011;70043;51.982;-8.514;2023-08-17T10:04:50;3.20;;;1.10;;
80679;SDS011;70043;51.982;-8.514;2023-08-17T10:07:18;5.75;;;1.08;;
80679;SDS011;70043;51.982;-8.514;2023-08-17T10:09:46;4.13;;;1.25;;
80679;SDS011;70043;51.982;-8.514;2023-08-17T10:12:15;1.83;;;1.05;;
80679;SDS011;70043;51.982;-8.514;2023-08-17T10:14:45;1.73;;;1.00;;
80679;SDS011;70043;51.982;-8.514;2023-08-17T10:17:18;6.07;;;1.48;;
80679;SDS011;70043;51.982;-8.514;2023-08-17T10:19:47;3.30;;;1.20;;
80679;SDS011;70043;51.982;-8.514;2023-08-17T10:22:18;2.28;;;1.23;;
80679;SDS011;70043;51.982;-8.514;2023-08-17T10:24:46;2.80;;;1.40;;
80679;SDS011;70043;51.982;-8.514;2023-08-17T10:27:14;4.72;;;1.08;;
80679;SDS011;70043;51.982;-8.514;2023-08-17T10:29:41;3.67;;;1.33;;
80679;SDS011;70043;51.982;-8.514;2023-08-17T10:32:10;3.35;;;1.45;;
80679;SDS011;70043;51.982;-8.514;2023-08-17T10:34:37;1.70;;;1.25;;
80679;SDS011;70043;51.982;-8.514;2023-08-17T10:37:04;5.55;;;1.10;;
80679;SDS011;70043;51.982;-8.514;2023-08-17T10:39:33;3.03;;;1.10;;
80679;SDS011;70043;51.982;-8.514;2023-08-17T10:42:04;4.53;;;1.00;;
80679;SDS011;70043;51.982;-8.514;2023-08-17T10:44:38;2.15;;;0.95;;
80679;SDS011;70043;51.982;-8.514;2023-08-17T10:47:20;4.55;;;1.55;;
80679;SDS011;70043;51.982;-8.514;2023-08-17T10:49:47;1.92;;;1.23;;
80679;SDS011;70043;51.982;-8.514;2023-08-17T10:52:14;4.70;;;1.00;;
80679;SDS011;70043;51.982;-8.514;2023-08-17T10:54:41;3.88;;;1.20;;
80679;SDS011;70043;51.982;-8.514;2023-08-17T10:57:24;3.20;;;1.20;;
80679;SDS011;70043;51.982;-8.514;2023-08-17T11:00:04;3.92;;;1.50;;
80679;SDS011;70043;51.982;-8.514;2023-08-17T11:02:35;5.20;;;1.40;;
80679;SDS011;70043;51.982;-8.514;2023-08-17T11:05:01;3.03;;;1.38;;
80679;SDS011;70043;51.982;-8.514;2023-08-17T11:07:38;6.07;;;1.20;;
80679;SDS011;70043;51.982;-8.514;2023-08-17T11:10:10;3.78;;;1.40;;
80679;SDS011;70043;51.982;-8.514;2023-08-17T11:12:37;8.63;;;1.38;;
80679;SDS011;70043;51.982;-8.514;2023-08-17T11:15:04;2.17;;;1.08;;
80679;SDS011;70043;51.982;-8.514;2023-08-17T11:17:31;5.47;;;1.40;;
80679;SDS011;70043;51.982;-8.514;2023-08-17T11:19:59;5.88;;;1.50;;
80679;SDS011;70043;51.982;-8.514;2023-08-17T11:22:26;6.50;;;1.52;;
80679;SDS011;70043;51.982;-8.514;2023-08-17T11:24:52;3.55;;;1.30;;
80679;SDS011;70043;51.982;-8.514;2023-08-17T11:27:20;3.33;;;1.10;;
80679;SDS011;70043;51.982;-8.514;2023-08-17T11:29:46;3.22;;;1.20;;
80679;SDS011;70043;51.982;-8.514;2023-08-17T11:32:15;5.07;;;1.30;;
80679;SDS011;70043;51.982;-8.514;2023-08-17T11:34:43;1.80;;;1.15;;
80679;SDS011;70043;51.982;-8.514;2023-08-17T11:37:13;2.55;;;1.20;;
80679;SDS011;70043;51.982;-8.514;2023-08-17T11:39:41;3.78;;;1.48;;
80679;SDS011;70043;51.982;-8.514;2023-08-17T11:42:09;7.63;;;1.40;;
80679;SDS011;70043;51.982;-8.514;2023-08-17T11:44:37;3.92;;;1.27;;
80679;SDS011;70043;51.982;-8.514;2023-08-17T11:47:04;7.70;;;1.30;;
80679;SDS011;70043;51.982;-8.514;2023-08-17T11:49:32;2.42;;;1.27;;
80679;SDS011;70043;51.982;-8.514;2023-08-17T11:51:59;3.67;;;1.17;;
80679;SDS011;70043;51.982;-8.514;2023-08-17T11:54:38;2.88;;;1.30;;
80679;SDS011;70043;51.982;-8.514;2023-08-17T11:57:09;2.95;;;1.10;;
80679;SDS011;70043;51.982;-8.514;2023-08-17T11:59:36;3.28;;;1.30;;
80679;SDS011;70043;51.982;-8.514;2023-08-17T12:02:03;1.67;;;0.90;;
80679;SDS011;70043;51.982;-8.514;2023-08-17T12:04:32;3.08;;;0.82;;
80679;SDS011;70043;51.982;-8.514;2023-08-17T12:06:59;3.55;;;1.10;;
80679;SDS011;70043;51.982;-8.514;2023-08-17T12:09:27;3.58;;;1.08;;
80679;SDS011;70043;51.982;-8.514;2023-08-17T12:11:58;2.75;;;1.40;;
80679;SDS011;70043;51.982;-8.514;2023-08-17T12:14:25;1.58;;;0.88;;
80679;SDS011;70043;51.982;-8.514;2023-08-17T12:16:53;1.77;;;0.90;;
80679;SDS011;70043;51.982;-8.514;2023-08-17T12:19:21;3.47;;;0.90;;
80679;SDS011;70043;51.982;-8.514;2023-08-17T12:21:48;2.30;;;0.93;;
80679;SDS011;70043;51.982;-8.514;2023-08-17T12:24:15;1.75;;;0.70;;
80679;SDS011;70043;51.982;-8.514;2023-08-17T12:26:50;2.35;;;0.70;;
80679;SDS011;70043;51.982;-8.514;2023-08-17T12:29:18;3.03;;;0.95;;
80679;SDS011;70043;51.982;-8.514;2023-08-17T12:31:45;1.52;;;0.70;;
80679;SDS011;70043;51.982;-8.514;2023-08-17T12:34:12;3.08;;;0.88;;
80679;SDS011;70043;51.982;-8.514;2023-08-17T12:36:42;3.83;;;0.60;;
80679;SDS011;70043;51.982;-8.514;2023-08-17T12:39:10;1.42;;;0.80;;
80679;SDS011;70043;51.982;-8.514;2023-08-17T12:41:37;0.90;;;0.57;;
80679;SDS011;70043;51.982;-8.514;2023-08-17T12:44:08;1.90;;;0.73;;
80679;SDS011;70043;51.982;-8.514;2023-08-17T12:46:37;2.08;;;0.65;;
80679;SDS011;70043;51.982;-8.514;2023-08-17T12:49:05;2.97;;;0.80;;
80679;SDS011;70043;51.982;-8.514;2023-08-17T12:51:32;2.03;;;0.68;;
80679;SDS011;70043;51.982;-8.514;2023-08-17T12:53:59;2.60;;;0.80;;
80679;SDS011;70043;51.982;-8.514;2023-08-17T12:56:26;1.40;;;0.60;;
80679;SDS011;70043;51.982;-8.514;2023-08-17T12:58:52;0.85;;;0.40;;
80679;SDS011;70043;51.982;-8.514;2023-08-17T13:01:25;3.13;;;0.70;;
80679;SDS011;70043;51.982;-8.514;2023-08-17T13:03:53;1.17;;;0.65;;
80679;SDS011;70043;51.982;-8.514;2023-08-17T13:06:19;1.92;;;0.65;;
80679;SDS011;70043;51.982;-8.514;2023-08-17T13:08:46;4.53;;;0.77;;
80679;SDS011;70043;51.982;-8.514;2023-08-17T13:11:13;6.95;;;0.60;;
80679;SDS011;70043;51.982;-8.514;2023-08-17T13:13:42;3.95;;;0.82;;
80679;SDS011;70043;51.982;-8.514;2023-08-17T13:16:09;3.42;;;0.80;;
80679;SDS011;70043;51.982;-8.514;2023-08-17T13:18:40;2.55;;;0.95;;
80679;SDS011;70043;51.982;-8.514;2023-08-17T13:21:07;4.43;;;0.68;;
80679;SDS011;70043;51.982;-8.514;2023-08-17T13:23:34;2.22;;;0.55;;
80679;SDS011;70043;51.982;-8.514;2023-08-17T13:26:01;2.10;;;0.80;;
80679;SDS011;70043;51.982;-8.514;2023-08-17T13:28:28;1.90;;;0.70;;
80679;SDS011;70043;51.982;-8.514;2023-08-17T13:30:55;3.42;;;0.80;;
80679;SDS011;70043;51.982;-8.514;2023-08-17T13:33:22;3.10;;;0.75;;
80679;SDS011;70043;51.982;-8.514;2023-08-17T13:35:50;2.90;;;0.90;;
80679;SDS011;70043;51.982;-8.514;2023-08-17T13:38:17;2.15;;;0.60;;
80679;SDS011;70043;51.982;-8.514;2023-08-17T13:40:44;1.30;;;0.55;;
80679;SDS011;70043;51.982;-8.514;2023-08-17T13:43:12;2.70;;;1.00;;
80679;SDS011;70043;51.982;-8.514;2023-08-17T13:45:39;1.90;;;0.57;;
80679;SDS011;70043;51.982;-8.514;2023-08-17T13:48:06;1.42;;;0.43;;
80679;SDS011;70043;51.982;-8.514;2023-08-17T13:50:34;3.08;;;0.65;;
80679;SDS011;70043;51.982;-8.514;2023-08-17T13:53:04;3.28;;;0.77;;
80679;SDS011;70043;51.982;-8.514;2023-08-17T13:55:31;3.03;;;0.70;;
80679;SDS011;70043;51.982;-8.514;2023-08-17T13:57:58;1.88;;;0.55;;
80679;SDS011;70043;51.982;-8.514;2023-08-17T14:00:24;2.17;;;0.93;;
80679;SDS011;70043;51.982;-8.514;2023-08-17T14:02:51;0.70;;;0.47;;
80679;SDS011;70043;51.982;-8.514;2023-08-17T14:05:20;3.15;;;0.73;;
80679;SDS011;70043;51.982;-8.514;2023-08-17T14:07:47;2.10;;;0.80;;
80679;SDS011;70043;51.982;-8.514;2023-08-17T14:10:17;1.15;;;0.55;;
80679;SDS011;70043;51.982;-8.514;2023-08-17T14:12:45;1.63;;;0.52;;
80679;SDS011;70043;51.982;-8.514;2023-08-17T14:15:13;3.05;;;0.63;;
80679;SDS011;70043;51.982;-8.514;2023-08-17T14:17:40;1.77;;;0.50;;
80679;SDS011;70043;51.982;-8.514;2023-08-17T14:20:07;1.23;;;0.50;;
80679;SDS011;70043;51.982;-8.514;2023-08-17T14:22:35;1.20;;;0.60;;
80679;SDS011;70043;51.982;-8.514;2023-08-17T14:25:02;1.35;;;0.65;;
80679;SDS011;70043;51.982;-8.514;2023-08-17T14:27:32;3.22;;;0.85;;
80679;SDS011;70043;51.982;-8.514;2023-08-17T14:29:59;3.35;;;0.98;;
80679;SDS011;70043;51.982;-8.514;2023-08-17T14:32:27;1.50;;;0.63;;
80679;SDS011;70043;51.982;-8.514;2023-08-17T14:34:54;4.32;;;0.75;;
80679;SDS011;70043;51.982;-8.514;2023-08-17T14:37:21;1.92;;;0.70;;
80679;SDS011;70043;51.982;-8.514;2023-08-17T14:39:47;0.55;;;0.40;;
80679;SDS011;70043;51.982;-8.514;2023-08-17T14:42:14;3.53;;;0.55;;
80679;SDS011;70043;51.982;-8.514;2023-08-17T14:44:43;1.27;;;0.50;;
80679;SDS011;70043;51.982;-8.514;2023-08-17T14:47:10;1.40;;;0.52;;
80679;SDS011;70043;51.982;-8.514;2023-08-17T14:49:37;2.55;;;0.73;;
80679;SDS011;70043;51.982;-8.514;2023-08-17T14:52:05;3.15;;;0.85;;
80679;SDS011;70043;51.982;-8.514;2023-08-17T14:54:32;3.13;;;0.52;;
80679;SDS011;70043;51.982;-8.514;2023-08-17T14:57:00;2.38;;;0.57;;
80679;SDS011;70043;51.982;-8.514;2023-08-17T14:59:27;2.47;;;0.65;;
80679;SDS011;70043;51.982;-8.514;2023-08-17T15:01:55;1.58;;;0.73;;
80679;SDS011;70043;51.982;-8.514;2023-08-17T15:04:28;2.85;;;0.57;;
80679;SDS011;70043;51.982;-8.514;2023-08-17T15:06:56;2.92;;;1.02;;
80679;SDS011;70043;51.982;-8.514;2023-08-17T15:09:26;2.50;;;0.95;;
80679;SDS011;70043;51.982;-8.514;2023-08-17T15:11:53;1.10;;;0.50;;
80679;SDS011;70043;51.982;-8.514;2023-08-17T15:14:21;5.25;;;1.00;;
80679;SDS011;70043;51.982;-8.514;2023-08-17T15:16:55;1.65;;;0.68;;
80679;SDS011;70043;51.982;-8.514;2023-08-17T15:19:22;2.28;;;0.70;;
80679;SDS011;70043;51.982;-8.514;2023-08-17T15:21:49;3.75;;;0.90;;
80679;SDS011;70043;51.982;-8.514;2023-08-17T15:24:18;1.38;;;0.57;;
80679;SDS011;70043;51.982;-8.514;2023-08-17T15:26:48;2.53;;;0.77;;
80679;SDS011;70043;51.982;-8.514;2023-08-17T15:29:15;1.52;;;0.70;;
80679;SDS011;70043;51.982;-8.514;2023-08-17T15:31:42;2.38;;;0.80;;
80679;SDS011;70043;51.982;-8.514;2023-08-17T15:34:11;3.30;;;0.88;;
80679;SDS011;70043;51.982;-8.514;2023-08-17T15:36:38;3.05;;;0.90;;
80679;SDS011;70043;51.982;-8.514;2023-08-17T15:39:05;2.65;;;0.57;;
80679;SDS011;70043;51.982;-8.514;2023-08-17T15:41:34;1.38;;;0.57;;
80679;SDS011;70043;51.982;-8.514;2023-08-17T15:44:02;2.58;;;1.00;;
80679;SDS011;70043;51.982;-8.514;2023-08-17T15:46:29;1.25;;;0.73;;
80679;SDS011;70043;51.982;-8.514;2023-08-17T15:48:57;3.55;;;1.13;;
80679;SDS011;70043;51.982;-8.514;2023-08-17T15:51:29;2.10;;;0.85;;
80679;SDS011;70043;51.982;-8.514;2023-08-17T15:54:03;3.90;;;0.98;;
80679;SDS011;70043;51.982;-8.514;2023-08-17T15:56:30;2.45;;;0.68;;
80679;SDS011;70043;51.982;-8.514;2023-08-17T15:58:57;1.42;;;0.50;;
80679;SDS011;70043;51.982;-8.514;2023-08-17T16:01:29;4.65;;;1.55;;
80679;SDS011;70043;51.982;-8.514;2023-08-17T16:03:58;1.65;;;0.80;;
80679;SDS011;70043;51.982;-8.514;2023-08-17T16:06:25;3.90;;;0.88;;
80679;SDS011;70043;51.982;-8.514;2023-08-17T16:08:53;5.32;;;1.02;;
80679;SDS011;70043;51.982;-8.514;2023-08-17T16:11:21;3.67;;;0.80;;
80679;SDS011;70043;51.982;-8.514;2023-08-17T16:13:48;1.40;;;0.80;;
80679;SDS011;70043;51.982;-8.514;2023-08-17T16:16:15;1.75;;;0.90;;
80679;SDS011;70043;51.982;-8.514;2023-08-17T16:18:43;3.30;;;1.05;;
80679;SDS011;70043;51.982;-8.514;2023-08-17T16:21:10;3.05;;;1.45;;
80679;SDS011;70043;51.982;-8.514;2023-08-17T16:23:36;5.15;;;0.95;;
80679;SDS011;70043;51.982;-8.514;2023-08-17T16:26:04;5.20;;;0.98;;
80679;SDS011;70043;51.982;-8.514;2023-08-17T16:28:31;1.48;;;0.77;;
80679;SDS011;70043;51.982;-8.514;2023-08-17T16:30:58;2.35;;;0.93;;
80679;SDS011;70043;51.982;-8.514;2023-08-17T16:33:25;2.70;;;1.00;;
80679;SDS011;70043;51.982;-8.514;2023-08-17T16:35:52;4.55;;;0.88;;
80679;SDS011;70043;51.982;-8.514;2023-08-17T16:38:18;3.53;;;1.23;;
80679;SDS011;70043;51.982;-8.514;2023-08-17T16:40:45;2.97;;;0.90;;
80679;SDS011;70043;51.982;-8.514;2023-08-17T16:43:13;2.97;;;0.85;;